Schneifelwetter: Wetterstation Hallschlag, 537 m . NN
Wetterdaten: Dienstag, 21.10.2008
Datum Zeit Temp. A. Temp. 2 Feuchte A. Luftdruck Regen Wind Richtung Richtung Sonnenschein Helligkeit T Regen Taupunkt Windchill
21.10.2008 00:01 11,8 C 11,5 C 94 % 1010 hPa 0,0 l/m 38,4 km/h (5 Bft) SW45 215 0 min 0 lux 0,00 min 10,9 C 1,8 C
21.10.2008 00:16 11,8 C 11,5 C 94 % 1010 hPa 0,0 l/m 30,0 km/h (5 Bft) SW45 220 0 min 0 lux 0,00 min 10,9 C 3,2 C
21.10.2008 00:31 11,9 C 11,7 C 94 % 1010 hPa 0,0 l/m 31,8 km/h (5 Bft) SW45 235 0 min 0 lux 0,00 min 11,0 C 3,0 C
21.10.2008 00:46 11,9 C 11,6 C 94 % 1010 hPa 0,0 l/m 34,6 km/h (5 Bft) SW67.5 230 0 min 0 lux 0,00 min 11,0 C 2,5 C
21.10.2008 01:01 11,8 C 11,6 C 95 % 1010 hPa 0,0 l/m 33,7 km/h (5 Bft) SW45 220 0 min 0 lux 0,00 min 11,0 C 2,5 C
21.10.2008 01:16 11,9 C 11,8 C 94 % 1009 hPa 0,0 l/m 33,9 km/h (5 Bft) SW45 235 0 min 0 lux 0,00 min 11,0 C 2,6 C
21.10.2008 01:31 12,1 C 12,0 C 94 % 1009 hPa 0,0 l/m 38,2 km/h (5 Bft) SW45 225 0 min 0 lux 0,00 min 11,2 C 2,3 C
21.10.2008 01:46 12,0 C 11,8 C 93 % 1009 hPa 0,0 l/m 30,3 km/h (5 Bft) W-SW45 240 0 min 0 lux 0,00 min 10,9 C 3,4 C
21.10.2008 02:01 11,8 C 11,7 C 94 % 1009 hPa 0,0 l/m 36,1 km/h (5 Bft) SW45 235 0 min 0 lux 0,00 min 10,9 C 2,1 C
21.10.2008 02:16 11,8 C 11,6 C 94 % 1009 hPa 0,0 l/m 37,6 km/h (5 Bft) SW22.5 235 0 min 0 lux 0,00 min 10,9 C 1,9 C
21.10.2008 02:31 11,7 C 11,5 C 94 % 1009 hPa 0,0 l/m 34,9 km/h (5 Bft) SW67.5 230 0 min 0 lux 0,00 min 10,8 C 2,2 C
21.10.2008 02:46 11,7 C 11,5 C 94 % 1009 hPa 0,0 l/m 36,2 km/h (5 Bft) SW22.5 225 0 min 0 lux 0,00 min 10,8 C 2,0 C
21.10.2008 03:01 11,8 C 11,6 C 94 % 1009 hPa 0,0 l/m 37,5 km/h (5 Bft) SW45 220 0 min 0 lux 0,00 min 10,9 C 1,9 C
21.10.2008 03:16 11,8 C 11,7 C 94 % 1009 hPa 0,0 l/m 30,3 km/h (5 Bft) SW67.5 235 0 min 0 lux 0,00 min 10,9 C 3,1 C
21.10.2008 03:31 11,9 C 11,8 C 94 % 1009 hPa 0,0 l/m 27,7 km/h (4 Bft) SW45 235 0 min 0 lux 0,00 min 11,0 C 3,8 C
21.10.2008 03:46 11,8 C 11,6 C 94 % 1009 hPa 0,0 l/m 34,9 km/h (5 Bft) SW67.5 220 0 min 0 lux 0,00 min 10,9 C 2,3 C
21.10.2008 04:01 11,8 C 11,6 C 95 % 1008 hPa 0,0 l/m 31,8 km/h (5 Bft) SW45 230 0 min 0 lux 0,00 min 11,0 C 2,8 C
21.10.2008 04:16 11,8 C 11,6 C 95 % 1008 hPa 0,0 l/m 35,8 km/h (5 Bft) SW45 225 0 min 0 lux 0,00 min 11,0 C 2,2 C
21.10.2008 04:31 12,0 C 11,7 C 95 % 1008 hPa 0,0 l/m 48,7 km/h (6 Bft) SW22.5 230 0 min 0 lux 0,00 min 11,2 C 0,9 C
21.10.2008 04:46 12,0 C 11,8 C 95 % 1008 hPa 0,0 l/m 35,0 km/h (5 Bft) SW45 215 0 min 0 lux 0,00 min 11,2 C 2,6 C
21.10.2008 05:01 12,0 C 11,8 C 95 % 1008 hPa 0,0 l/m 38,7 km/h (5 Bft) SW67.5 230 0 min 0 lux 0,00 min 11,2 C 2,0 C
21.10.2008 05:16 12,3 C 12,1 C 95 % 1007 hPa 0,0 l/m 38,4 km/h (5 Bft) SW45 235 0 min 0 lux 0,00 min 11,5 C 2,5 C
21.10.2008 05:31 12,4 C 12,4 C 94 % 1007 hPa 0,0 l/m 37,0 km/h (5 Bft) SW45 230 0 min 0 lux 0,00 min 11,5 C 2,9 C
21.10.2008 05:46 12,5 C 12,5 C 94 % 1008 hPa 0,0 l/m 32,6 km/h (5 Bft) SW22.5 225 0 min 0 lux 0,00 min 11,6 C 3,7 C
21.10.2008 06:02 12,6 C 12,6 C 93 % 1008 hPa 0,0 l/m 40,4 km/h (6 Bft) SW67.5 230 0 min 0 lux 0,00 min 11,5 C 2,7 C
21.10.2008 06:17 12,6 C 12,7 C 92 % 1007 hPa 0,0 l/m 45,4 km/h (6 Bft) SW67.5 225 0 min 0 lux 0,00 min 11,3 C 2,1 C
21.10.2008 06:32 12,5 C 12,7 C 92 % 1007 hPa 0,0 l/m 40,3 km/h (6 Bft) SW67.5 230 0 min 0 lux 0,00 min 11,2 C 2,6 C
21.10.2008 06:47 12,5 C 12,7 C 91 % 1007 hPa 0,0 l/m 42,7 km/h (6 Bft) W-SW45 240 0 min 0 lux 0,00 min 11,1 C 2,3 C
21.10.2008 07:02 12,5 C 12,7 C 91 % 1007 hPa 0,0 l/m 35,3 km/h (5 Bft) SW67.5 220 0 min 0 lux 0,00 min 11,1 C 3,3 C
21.10.2008 07:17 12,4 C 12,6 C 91 % 1008 hPa 0,0 l/m 37,9 km/h (5 Bft) W-SW67.5 250 0 min 0 lux 0,00 min 11,0 C 2,7 C
21.10.2008 07:32 12,3 C 12,5 C 91 % 1007 hPa 0,0 l/m 38,8 km/h (5 Bft) SW45 230 0 min 0 lux 0,00 min 10,9 C 2,5 C
21.10.2008 07:47 12,3 C 12,3 C 91 % 1007 hPa 0,0 l/m 24,8 km/h (4 Bft) SW45 225 0 min 0 lux 0,00 min 10,9 C 5,0 C
21.10.2008 08:02 12,2 C 12,3 C 91 % 1007 hPa 0,0 l/m 31,9 km/h (5 Bft) SW22.5 235 0 min 99 lux 0,00 min 10,8 C 3,4 C
21.10.2008 08:17 12,3 C 12,4 C 91 % 1007 hPa 0,0 l/m 38,1 km/h (5 Bft) SW45 225 0 min 379 lux 0,00 min 10,9 C 2,6 C
21.10.2008 08:32 12,2 C 12,3 C 91 % 1007 hPa 0,0 l/m 36,9 km/h (5 Bft) SW67.5 235 0 min 733 lux 0,00 min 10,8 C 2,6 C
21.10.2008 08:47 12,2 C 12,3 C 91 % 1007 hPa 0,0 l/m 33,4 km/h (5 Bft) SW45 225 0 min 1,30 klux 0,00 min 10,8 C 3,1 C
21.10.2008 09:02 12,1 C 12,2 C 90 % 1007 hPa 0,0 l/m 30,6 km/h (5 Bft) SW45 225 0 min 2,91 klux 0,00 min 10,5 C 3,5 C
21.10.2008 09:17 12,0 C 12,2 C 90 % 1007 hPa 0,0 l/m 30,0 km/h (5 Bft) W-SW22.5 250 0 min 3,17 klux 0,00 min 10,4 C 3,5 C
21.10.2008 09:32 12,0 C 12,2 C 90 % 1007 hPa 0,0 l/m 32,1 km/h (5 Bft) SW45 225 0 min 10,8 klux 0,00 min 10,4 C 3,1 C
21.10.2008 09:47 12,4 C 12,7 C 89 % 1008 hPa 0,0 l/m 32,1 km/h (5 Bft) SW45 225 0 min 29,8 klux 0,00 min 10,6 C 3,6 C
21.10.2008 10:02 12,6 C 12,9 C 88 % 1007 hPa 0,0 l/m 31,9 km/h (5 Bft) SW45 225 0 min 13,7 klux 0,00 min 10,7 C 4,0 C
21.10.2008 10:17 12,4 C 12,7 C 88 % 1007 hPa 0,0 l/m 29,5 km/h (5 Bft) SW45 220 0 min 6,56 klux 0,00 min 10,5 C 4,1 C
21.10.2008 10:32 12,3 C 12,6 C 88 % 1008 hPa 0,0 l/m 30,8 km/h (5 Bft) S-SW45 210 0 min 6,94 klux 0,00 min 10,4 C 3,7 C
21.10.2008 10:47 12,0 C 11,9 C 90 % 1008 hPa 0,0 l/m 36,3 km/h (5 Bft) SW45 215 0 min 4,74 klux 0,00 min 10,4 C 2,4 C
21.10.2008 11:02 10,1 C 10,3 C 88 % 1008 hPa 1,2 l/m 33,6 km/h (5 Bft) W45 275 0 min 5,05 klux 15,00 min 8,2 C 0,1 C
21.10.2008 11:17 9,2 C 9,3 C 90 % 1009 hPa 0,3 l/m 15,2 km/h (3 Bft) W22.5 275 0 min 6,35 klux 15,00 min 7,6 C 4,1 C
21.10.2008 11:32 8,8 C 8,9 C 92 % 1009 hPa 0,3 l/m 14,5 km/h (3 Bft) W45 275 0 min 6,57 klux 15,00 min 7,6 C 3,9 C
21.10.2008 11:47 8,8 C 8,7 C 93 % 1009 hPa 0,3 l/m 9,9 km/h (2 Bft) W22.5 260 0 min 6,08 klux 15,00 min 7,7 C 6,3 C
21.10.2008 12:02 8,8 C 8,7 C 94 % 1009 hPa 0,3 l/m 5,4 km/h (1 Bft) W22.5 280 0 min 8,10 klux 15,00 min 7,9 C 8,8 C
21.10.2008 12:17 8,9 C 8,6 C 94 % 1009 hPa 0,0 l/m 8,7 km/h (2 Bft) W 275 0 min 9,4 klux 0,00 min 8,0 C 7,2 C
21.10.2008 12:32 8,8 C 8,5 C 93 % 1009 hPa 0,3 l/m 15,5 km/h (3 Bft) W22.5 270 0 min 8,26 klux 15,00 min 7,7 C 3,5 C
21.10.2008 12:47 8,8 C 8,5 C 93 % 1010 hPa 0,0 l/m 13,4 km/h (3 Bft) W22.5 270 0 min 8,24 klux 0,00 min 7,7 C 4,4 C
21.10.2008 13:02 8,6 C 8,4 C 94 % 1010 hPa 0,3 l/m 12,1 km/h (2 Bft) W22.5 270 0 min 9,2 klux 15,00 min 7,7 C 4,8 C
21.10.2008 13:17 8,6 C 8,3 C 94 % 1010 hPa 0,0 l/m 14,7 km/h (3 Bft) W22.5 265 0 min 10,3 klux 0,00 min 7,7 C 3,6 C
21.10.2008 13:32 8,4 C 8,2 C 93 % 1010 hPa 0,3 l/m 13,3 km/h (3 Bft) W22.5 270 0 min 10,6 klux 15,00 min 7,3 C 4,0 C
21.10.2008 13:47 8,5 C 8,3 C 94 % 1010 hPa 0,3 l/m 13,9 km/h (3 Bft) W-SW22.5 255 0 min 12,9 klux 15,00 min 7,6 C 3,8 C
21.10.2008 14:02 8,7 C 8,4 C 94 % 1010 hPa 0,0 l/m 13,0 km/h (3 Bft) W22.5 270 0 min 16,9 klux 0,00 min 7,8 C 4,5 C
21.10.2008 14:17 8,9 C 8,6 C 93 % 1011 hPa 0,0 l/m 14,2 km/h (3 Bft) W22.5 265 0 min 15,0 klux 0,00 min 7,8 C 4,2 C
21.10.2008 14:32 8,6 C 8,3 C 92 % 1011 hPa 0,0 l/m 17,4 km/h (3 Bft) W45 270 0 min 13,2 klux 0,00 min 7,4 C 2,4 C
21.10.2008 14:47 8,7 C 8,7 C 92 % 1011 hPa 0,0 l/m 14,6 km/h (3 Bft) W22.5 260 0 min 17,1 klux 0,00 min 7,5 C 3,7 C
21.10.2008 15:02 8,8 C 9,0 C 90 % 1011 hPa 0,0 l/m 19,1 km/h (3 Bft) W22.5 265 0 min 18,8 klux 0,00 min 7,3 C 2,1 C
21.10.2008 15:17 9,2 C 9,5 C 90 % 1011 hPa 0,0 l/m 24,0 km/h (4 Bft) W22.5 270 0 min 24,8 klux 0,00 min 7,6 C 1,0 C
21.10.2008 15:32 9,3 C 9,7 C 88 % 1011 hPa 0,0 l/m 18,9 km/h (3 Bft) W22.5 275 0 min 23,2 klux 0,00 min 7,4 C 2,8 C
21.10.2008 15:47 9,2 C 9,6 C 88 % 1011 hPa 0,0 l/m 17,7 km/h (3 Bft) W22.5 270 0 min 21,1 klux 0,00 min 7,3 C 3,1 C
21.10.2008 16:01 8,7 C 8,9 C 88 % 1011 hPa 0,0 l/m 18,6 km/h (3 Bft) W22.5 270 0 min 12,5 klux 0,00 min 6,8 C 2,1 C
21.10.2008 16:16 8,6 C 8,7 C 88 % 1011 hPa 0,0 l/m 15,2 km/h (3 Bft) W22.5 270 0 min 11,6 klux 0,00 min 6,7 C 3,3 C
21.10.2008 16:31 8,7 C 8,6 C 89 % 1011 hPa 0,0 l/m 7,7 km/h (2 Bft) W 260 0 min 11,2 klux 0,00 min 7,0 C 7,7 C
21.10.2008 16:46 8,7 C 8,5 C 89 % 1011 hPa 0,0 l/m 15,4 km/h (3 Bft) W-SW 250 0 min 10,6 klux 0,00 min 7,0 C 3,4 C
21.10.2008 17:01 8,8 C 8,5 C 90 % 1012 hPa 0,0 l/m 12,3 km/h (3 Bft) W-SW 245 0 min 10,8 klux 0,00 min 7,3 C 5,0 C
21.10.2008 17:16 8,6 C 8,3 C 89 % 1012 hPa 0,0 l/m 8,6 km/h (2 Bft) W-SW 250 0 min 9,6 klux 0,00 min 6,9 C 7,0 C
21.10.2008 17:31 8,4 C 8,2 C 89 % 1012 hPa 0,0 l/m 10,8 km/h (2 Bft) W-SW22.5 250 0 min 8,31 klux 0,00 min 6,7 C 5,3 C
21.10.2008 17:46 8,1 C 7,9 C 90 % 1012 hPa 0,0 l/m 15,9 km/h (3 Bft) W-SW 255 0 min 4,88 klux 0,00 min 6,6 C 2,4 C
21.10.2008 18:01 7,9 C 7,5 C 90 % 1012 hPa 0,0 l/m 11,9 km/h (2 Bft) W-SW22.5 255 0 min 2,75 klux 0,00 min 6,4 C 4,2 C
21.10.2008 18:16 7,6 C 7,1 C 91 % 1012 hPa 0,0 l/m 11,8 km/h (2 Bft) W-SW22.5 245 0 min 1,17 klux 0,00 min 6,2 C 3,9 C
21.10.2008 18:31 7,4 C 6,9 C 92 % 1012 hPa 0,0 l/m 9,8 km/h (2 Bft) W-SW 250 0 min 320 lux 0,00 min 6,2 C 4,9 C
21.10.2008 18:46 7,2 C 6,7 C 92 % 1012 hPa 0,0 l/m 11,3 km/h (2 Bft) W-SW22.5 255 0 min 81 lux 0,00 min 6,0 C 3,7 C
21.10.2008 19:01 7,0 C 6,6 C 92 % 1012 hPa 0,0 l/m 9,0 km/h (2 Bft) W-SW22.5 250 0 min 15 lux 0,00 min 5,8 C 5,0 C
21.10.2008 19:16 6,9 C 6,4 C 93 % 1013 hPa 0,0 l/m 10,1 km/h (2 Bft) W-SW22.5 245 0 min 0 lux 0,00 min 5,8 C 4,1 C
21.10.2008 19:31 6,8 C 6,3 C 94 % 1013 hPa 0,0 l/m 5,6 km/h (1 Bft) W-SW 240 0 min 0 lux 0,00 min 5,9 C 6,8 C
21.10.2008 19:46 6,8 C 6,3 C 94 % 1013 hPa 0,0 l/m 7,9 km/h (2 Bft) W-SW 240 0 min 0 lux 0,00 min 5,9 C 5,6 C
21.10.2008 20:01 6,7 C 6,2 C 94 % 1013 hPa 0,0 l/m 7,4 km/h (2 Bft) W-SW 240 0 min 0 lux 0,00 min 5,8 C 5,9 C
21.10.2008 20:16 6,7 C 6,2 C 95 % 1013 hPa 0,0 l/m 14,0 km/h (3 Bft) W-SW22.5 255 0 min 0 lux 0,00 min 6,0 C 1,6 C
21.10.2008 20:31 6,7 C 6,2 C 95 % 1013 hPa 0,0 l/m 10,0 km/h (2 Bft) W-SW22.5 250 0 min 0 lux 0,00 min 6,0 C 4,0 C
21.10.2008 20:46 6,7 C 6,3 C 95 % 1013 hPa 0,0 l/m 10,1 km/h (2 Bft) W-SW22.5 255 0 min 0 lux 0,00 min 6,0 C 3,9 C
21.10.2008 21:01 6,7 C 6,3 C 96 % 1014 hPa 0,0 l/m 7,0 km/h (2 Bft) W-SW 255 0 min 0 lux 0,00 min 6,1 C 6,2 C
21.10.2008 21:16 6,6 C 6,2 C 96 % 1013 hPa 0,0 l/m 6,1 km/h (2 Bft) W 265 0 min 0 lux 0,00 min 6,0 C 6,6 C
21.10.2008 21:31 6,6 C 6,1 C 96 % 1013 hPa 0,0 l/m 8,1 km/h (2 Bft) W 260 0 min 0 lux 0,00 min 6,0 C 5,2 C
21.10.2008 21:46 6,5 C 6,0 C 96 % 1014 hPa 0,0 l/m 9,7 km/h (2 Bft) W 265 0 min 0 lux 0,00 min 5,9 C 3,9 C
21.10.2008 22:01 6,4 C 5,9 C 95 % 1014 hPa 0,0 l/m 7,4 km/h (2 Bft) W22.5 265 0 min 0 lux 0,00 min 5,7 C 5,6 C
21.10.2008 22:16 6,4 C 5,8 C 95 % 1014 hPa 0,0 l/m 4,0 km/h (1 Bft) W 260 0 min 0 lux 0,00 min 5,7 C 6,4 C
21.10.2008 22:31 6,3 C 5,7 C 95 % 1015 hPa 0,0 l/m 3,3 km/h (1 Bft) W-SW 245 0 min 0 lux 0,00 min 5,6 C 6,3 C
21.10.2008 22:46 6,2 C 5,6 C 95 % 1015 hPa 0,0 l/m 7,7 km/h (2 Bft) W22.5 260 0 min 0 lux 0,00 min 5,5 C 5,1 C
21.10.2008 23:01 6,2 C 5,7 C 95 % 1015 hPa 0,0 l/m 9,4 km/h (2 Bft) W22.5 260 0 min 0 lux 0,00 min 5,5 C 3,8 C
21.10.2008 23:16 6,2 C 5,7 C 96 % 1015 hPa 0,0 l/m 8,7 km/h (2 Bft) W 260 0 min 0 lux 0,00 min 5,6 C 4,3 C
21.10.2008 23:31 6,2 C 5,7 C 96 % 1015 hPa 0,0 l/m 8,5 km/h (2 Bft) W 270 0 min 0 lux 0,00 min 5,6 C 4,5 C
21.10.2008 23:46 6,2 C 5,7 C 96 % 1015 hPa 0,0 l/m 4,0 km/h (1 Bft) W 265 0 min 0 lux 0,00 min 5,6 C 6,2 C
_ Min-Zeit 22:46 22:46 10:02 05:16 - 22:31 - - - - - 22:46 11:02
Minimum _ 6,2 C 5,6 C 88 % 1007 hPa - 3,3 km/h (1 Bft) - - - - - 5,5 C 0,1 C
_ Max-Zeit 06:02 10:02 21:01 22:31 11:02 04:31 - - 00:01 09:47 11:02 05:46 12:02
Maximum _ 12,6 C 12,9 C 96 % 1015 hPa 1,2 l/m 48,7 km/h
SW (6 Bft)
- - 0 min 29,8 klux 15,00 min 11,6 C 8,8 C
Durchschnitt _ 9,8 C 9,6 C 93 % 1010 hPa #3,6 l/m 22,5 km/h (4 Bft) SW - #0 min. 4,34 klux #2:15 h 8,6 C 3,7 C